Time;durP1;ratioP1;P1;durP2;ratioP2;P2;SDS_P1;SDS_P2;PMS_P1;PMS_P2;Temp;Humidity;BMP_temperature;BMP_pressure;BME280_temperature;BME280_humidity;BME280_pressure;Samples;Min_cycle;Max_cycle;Signal;HPM_P1;HPM_P2
2022/06/12 00:01:11;;;;;;;2.42;1.15;;;19.10;99.90;;;;;;5076148;28;20105;-82
2022/06/12 00:03:39;;;;;;;9.98;1.30;;;19.10;99.90;;;;;;5075664;28;20041;-81
2022/06/12 00:06:07;;;;;;;2.78;1.30;;;19.00;99.90;;;;;;5057314;28;20067;-81
2022/06/12 00:08:37;;;;;;;2.60;1.38;;;19.00;99.90;;;;;;5075831;28;20104;-82
2022/06/12 00:11:13;;;;;;;2.03;1.33;;;19.00;99.90;;;;;;5071430;28;20085;-81
2022/06/12 00:13:44;;;;;;;2.97;1.27;;;19.00;99.90;;;;;;5077668;28;20127;-81
2022/06/12 00:16:11;;;;;;;4.38;1.40;;;18.90;99.90;;;;;;5057495;28;20051;-80
2022/06/12 00:18:39;;;;;;;2.55;1.38;;;18.90;99.90;;;;;;5076354;28;20056;-80
2022/06/12 00:21:10;;;;;;;3.17;1.20;;;18.90;99.90;;;;;;5077754;28;20075;-80
2022/06/12 00:23:55;;;;;;;2.88;1.38;;;18.90;99.90;;;;;;5069941;28;20448;-82
2022/06/12 00:26:32;;;;;;;2.13;1.25;;;18.80;99.90;;;;;;5077081;28;20104;-81
2022/06/12 00:29:06;;;;;;;4.40;1.45;;;18.80;99.90;;;;;;5071546;28;20052;-81
2022/06/12 00:31:35;;;;;;;1.92;1.05;;;18.70;99.90;;;;;;5072656;28;20128;-82
2022/06/12 00:34:03;;;;;;;2.58;1.27;;;18.70;99.90;;;;;;5074320;28;20112;-80
2022/06/12 00:36:30;;;;;;;3.22;1.20;;;18.70;99.90;;;;;;5076992;28;20045;-82
2022/06/12 00:38:57;;;;;;;1.40;1.08;;;18.70;99.90;;;;;;5069161;28;20048;-80
2022/06/12 00:41:23;;;;;;;3.30;1.10;;;18.60;99.90;;;;;;5076672;28;20100;-80
2022/06/12 00:43:52;;;;;;;2.83;1.50;;;18.60;99.90;;;;;;5076881;28;20048;-82
2022/06/12 00:47:12;;;;;;;4.85;1.67;;;18.60;99.90;;;;;;5075013;28;20493;-82
2022/06/12 00:49:46;;;;;;;1.67;1.10;;;18.60;99.90;;;;;;4983538;28;20107;-81
2022/06/12 00:52:29;;;;;;;4.40;1.27;;;18.50;99.90;;;;;;5058183;28;20634;-78
2022/06/12 00:55:05;;;;;;;2.58;1.05;;;18.50;99.90;;;;;;5071277;28;20080;-81
2022/06/12 00:57:33;;;;;;;2.53;1.20;;;18.50;99.90;;;;;;5056766;28;20057;-82
2022/06/12 01:00:04;;;;;;;3.95;1.30;;;18.50;99.90;;;;;;5076489;28;20040;-82
2022/06/12 01:02:36;;;;;;;4.22;1.38;;;18.40;99.90;;;;;;5071325;28;20049;-81
2022/06/12 01:07:55;;;;;;;1.42;1.20;;;18.40;99.90;;;;;;5073576;28;20044;-82
2022/06/12 01:10:25;;;;;;;7.18;1.50;;;18.40;99.90;;;;;;5079071;28;20120;-82
2022/06/12 01:12:54;;;;;;;;;;;18.40;99.90;;;;;;5079767;28;20080;-80
2022/06/12 01:15:25;;;;;;;3.72;1.27;;;18.40;99.90;;;;;;5059936;28;19948;-82
2022/06/12 01:17:53;;;;;;;4.65;1.70;;;18.40;99.90;;;;;;5076455;28;20512;-80
2022/06/12 01:20:25;;;;;;;2.83;1.38;;;18.30;99.90;;;;;;5076326;28;20223;-81
2022/06/12 01:23:34;;;;;;;1.77;1.20;;;18.30;99.90;;;;;;5063536;28;20053;-81
2022/06/12 01:26:49;;;;;;;2.65;1.27;;;18.30;99.90;;;;;;5080438;28;20041;-82
2022/06/12 01:29:27;;;;;;;2.03;1.33;;;18.20;99.90;;;;;;5065718;28;20061;-81
2022/06/12 01:32:11;;;;;;;4.20;1.50;;;18.10;99.90;;;;;;5073972;28;20053;-82
2022/06/12 01:34:42;;;;;;;2.33;1.27;;;18.10;99.90;;;;;;5058760;28;20109;-81
2022/06/12 01:37:20;;;;;;;3.05;1.60;;;18.10;99.90;;;;;;5077156;28;20064;-81
2022/06/12 01:40:05;;;;;;;2.10;1.20;;;18.00;99.90;;;;;;5060818;28;20053;-82
2022/06/12 01:42:52;;;;;;;5.50;1.98;;;18.10;99.90;;;;;;5075548;28;20051;-81
2022/06/12 01:45:39;;;;;;;2.28;1.58;;;18.10;99.90;;;;;;5073283;28;20045;-82
2022/06/12 01:48:25;;;;;;;2.88;1.45;;;17.90;99.90;;;;;;5079947;28;20045;-81
2022/06/12 01:51:13;;;;;;;2.35;1.40;;;18.00;99.90;;;;;;5078944;28;20056;-81
2022/06/12 01:53:54;;;;;;;2.95;1.40;;;18.00;99.90;;;;;;5076178;28;20108;-80
2022/06/12 01:56:31;;;;;;;3.35;1.30;;;17.90;99.90;;;;;;5072217;28;20049;-80
2022/06/12 01:59:26;;;;;;;3.28;1.50;;;18.00;99.90;;;;;;5074851;28;20055;-81
2022/06/12 02:01:59;;;;;;;2.30;1.42;;;17.90;99.90;;;;;;5074913;28;20052;-78
2022/06/12 02:04:31;;;;;;;3.97;1.55;;;17.90;99.90;;;;;;5073178;28;20133;-79
2022/06/12 02:07:07;;;;;;;2.03;1.40;;;17.90;99.90;;;;;;5076318;28;20139;-80
2022/06/12 02:09:52;;;;;;;1.75;1.60;;;17.80;99.90;;;;;;5076134;28;20452;-81
2022/06/12 02:15:11;;;;;;;5.80;1.48;;;17.70;99.90;;;;;;5072521;28;20049;-81
2022/06/12 02:17:48;;;;;;;2.58;1.90;;;17.60;99.90;;;;;;5075894;28;20060;-79
2022/06/12 02:20:18;;;;;;;2.50;1.67;;;17.60;99.90;;;;;;5077510;28;20052;-78
2022/06/12 02:22:48;;;;;;;3.63;1.70;;;17.70;99.90;;;;;;5071533;28;20057;-80
2022/06/12 02:25:21;;;;;;;3.60;1.63;;;17.60;99.90;;;;;;5078480;28;20048;-81
2022/06/12 02:27:56;;;;;;;10.75;2.20;;;17.50;99.90;;;;;;5078772;28;20047;-80
2022/06/12 02:30:27;;;;;;;3.30;1.70;;;17.50;99.90;;;;;;5079738;28;20076;-80
2022/06/12 02:33:02;;;;;;;5.03;1.75;;;17.60;99.90;;;;;;5082090;28;20104;-79
2022/06/12 02:35:39;;;;;;;3.63;1.83;;;17.60;99.90;;;;;;5075504;28;20090;-80
2022/06/12 02:38:13;;;;;;;3.80;1.25;;;17.60;99.90;;;;;;5070368;28;20132;-82
2022/06/12 02:40:47;;;;;;;2.47;1.30;;;17.60;99.90;;;;;;5058875;28;20048;-82
2022/06/12 02:43:20;;;;;;;1.70;1.50;;;17.60;99.90;;;;;;5074062;28;20113;-80
2022/06/12 02:45:51;;;;;;;3.35;1.98;;;17.50;99.90;;;;;;5070480;28;20045;-81
2022/06/12 02:48:21;;;;;;;2.92;1.73;;;17.60;99.90;;;;;;5076618;28;20053;-81
2022/06/12 02:51:05;;;;;;;3.92;2.38;;;17.50;99.90;;;;;;5077320;28;20055;-80
2022/06/12 02:53:35;;;;;;;2.60;1.50;;;17.50;99.90;;;;;;5070905;28;20083;-79
2022/06/12 02:56:27;;;;;;;3.85;1.90;;;17.50;99.90;;;;;;5076242;28;20095;-80
2022/06/12 02:59:20;;;;;;;5.97;1.98;;;17.50;99.90;;;;;;5038279;28;20056;-81
2022/06/12 03:02:09;;;;;;;2.13;1.90;;;17.60;99.90;;;;;;5066268;28;20055;-80
2022/06/12 03:04:45;;;;;;;3.60;1.80;;;17.60;99.90;;;;;;5072273;28;20070;-81
2022/06/12 03:07:12;;;;;;;3.08;1.55;;;17.50;99.90;;;;;;5075475;28;20075;-81
2022/06/12 03:09:39;;;;;;;2.50;1.80;;;17.60;99.90;;;;;;5076207;28;20076;-80
2022/06/12 03:12:07;;;;;;;2.17;1.60;;;17.50;99.90;;;;;;5074203;28;20128;-81
2022/06/12 03:14:34;;;;;;;2.47;1.67;;;17.60;99.90;;;;;;5077806;28;20076;-81
2022/06/12 03:17:01;;;;;;;3.40;1.83;;;17.50;99.90;;;;;;5070908;28;20131;-81
2022/06/12 03:19:42;;;;;;;2.85;1.83;;;17.50;99.90;;;;;;5076368;28;20041;-81
2022/06/12 03:22:34;;;;;;;3.30;1.80;;;17.50;99.90;;;;;;5077187;28;20049;-80
2022/06/12 03:25:36;;;;;;;2.70;1.83;;;17.50;99.90;;;;;;5075381;28;20080;-81
2022/06/12 03:28:11;;;;;;;2.08;1.80;;;17.40;99.90;;;;;;5070423;28;20049;-81
2022/06/12 03:30:45;;;;;;;2.60;1.80;;;17.30;99.90;;;;;;5075131;28;20059;-80
2022/06/12 03:33:23;;;;;;;2.00;1.70;;;17.40;99.90;;;;;;5057605;28;20493;-81
2022/06/12 03:36:02;;;;;;;4.50;2.08;;;17.30;99.90;;;;;;5053430;28;20090;-81
2022/06/12 03:38:54;;;;;;;4.35;2.28;;;17.30;99.90;;;;;;5073820;28;20049;-80
2022/06/12 03:41:51;;;;;;;3.60;2.17;;;17.30;99.90;;;;;;5075862;28;20055;-80
2022/06/12 03:44:30;;;;;;;3.00;1.80;;;17.30;99.90;;;;;;5076361;28;20052;-81
2022/06/12 03:47:15;;;;;;;3.50;1.90;;;17.30;99.90;;;;;;5072304;28;20052;-81
2022/06/12 03:50:34;;;;;;;1.88;1.70;;;17.30;99.90;;;;;;5069562;28;20060;-81
2022/06/12 03:53:06;;;;;;;3.53;1.95;;;17.30;99.90;;;;;;4987825;28;20061;-81
2022/06/12 03:58:44;;;;;;;2.97;1.85;;;17.30;99.90;;;;;;5073896;28;20108;-81
2022/06/12 04:01:12;;;;;;;4.68;1.90;;;17.30;99.90;;;;;;5051604;28;20074;-80
2022/06/12 04:03:42;;;;;;;14.32;2.30;;;17.30;99.90;;;;;;5076230;28;20499;-79
2022/06/12 04:06:18;;;;;;;2.17;1.73;;;17.20;99.90;;;;;;5056218;28;20041;-80
2022/06/12 04:08:53;;;;;;;4.03;1.98;;;17.20;99.90;;;;;;5073269;28;20041;-80
2022/06/12 04:11:23;;;;;;;3.15;1.90;;;17.30;99.90;;;;;;5070728;28;20049;-81
2022/06/12 04:13:51;;;;;;;5.63;1.80;;;17.30;99.90;;;;;;5075106;28;20053;-80
2022/06/12 04:16:30;;;;;;;5.38;1.98;;;17.30;99.90;;;;;;5074499;28;20084;-81
2022/06/12 04:18:58;;;;;;;2.53;2.07;;;17.30;99.90;;;;;;5068189;28;20048;-80
2022/06/12 04:21:42;;;;;;;3.28;1.65;;;17.40;99.90;;;;;;5076511;28;20058;-80
2022/06/12 04:24:21;;;;;;;4.07;1.85;;;17.40;99.90;;;;;;5076415;28;20051;-81
2022/06/12 04:26:56;;;;;;;4.45;1.80;;;17.40;99.90;;;;;;5072125;28;20056;-79
2022/06/12 04:29:33;;;;;;;3.35;1.90;;;17.40;99.90;;;;;;5072928;28;20117;-82
2022/06/12 04:32:03;;;;;;;3.08;1.67;;;17.40;99.90;;;;;;5069161;28;20051;-81
2022/06/12 04:34:32;;;;;;;;;;;17.50;99.90;;;;;;5075162;28;20072;-79
2022/06/12 04:37:18;;;;;;;1.80;1.63;;;17.50;99.90;;;;;;5074448;28;19921;-80
2022/06/12 04:39:45;;;;;;;5.40;1.67;;;17.60;99.90;;;;;;5052085;28;20063;-80
2022/06/12 04:42:19;;;;;;;5.15;2.10;;;17.50;99.90;;;;;;5076481;28;20044;-82
2022/06/12 04:44:47;;;;;;;3.95;2.30;;;17.60;99.90;;;;;;5080172;28;20060;-81
2022/06/12 04:47:18;;;;;;;3.03;2.05;;;17.70;99.90;;;;;;5077684;28;20076;-80
2022/06/12 04:49:46;;;;;;;5.68;2.40;;;17.70;99.90;;;;;;5073752;28;20045;-80
2022/06/12 04:52:14;;;;;;;2.63;1.55;;;17.80;99.90;;;;;;5079532;28;20052;-80
2022/06/12 04:54:43;;;;;;;3.28;1.60;;;17.90;99.90;;;;;;5080065;28;20108;-82
2022/06/12 04:57:12;;;;;;;1.52;1.42;;;18.10;99.90;;;;;;5078590;28;20048;-80
2022/06/12 04:59:38;;;;;;;4.68;1.55;;;18.20;99.90;;;;;;5076736;28;20128;-82
2022/06/12 05:02:06;;;;;;;3.63;1.50;;;18.30;99.90;;;;;;5076541;28;20131;-82
2022/06/12 05:04:33;;;;;;;3.40;1.63;;;18.50;99.90;;;;;;5087848;28;20048;-83
2022/06/12 05:07:01;;;;;;;4.28;1.80;;;18.60;99.90;;;;;;5085639;28;20033;-83
2022/06/12 05:09:31;;;;;;;1.65;1.33;;;18.70;99.90;;;;;;5092622;28;20108;-83
2022/06/12 05:11:58;;;;;;;5.07;1.55;;;18.80;99.90;;;;;;5090955;28;20040;-83
2022/06/12 05:14:25;;;;;;;2.55;1.70;;;19.00;99.90;;;;;;5091357;28;20043;-84
2022/06/12 05:16:56;;;;;;;1.60;1.27;;;19.10;99.90;;;;;;5093234;28;20033;-84
2022/06/12 05:19:28;;;;;;;2.30;1.60;;;19.20;99.90;;;;;;5093015;28;20025;-83
2022/06/12 05:21:55;;;;;;;5.45;1.88;;;19.30;99.90;;;;;;5085859;28;20092;-83
2022/06/12 05:24:22;;;;;;;3.30;1.20;;;19.40;99.90;;;;;;5090770;28;20128;-81
2022/06/12 05:26:50;;;;;;;2.17;1.58;;;19.40;99.90;;;;;;5076566;28;20045;-80
2022/06/12 05:29:23;;;;;;;1.92;1.40;;;19.50;99.90;;;;;;5078067;28;20391;-79
2022/06/12 05:31:51;;;;;;;3.35;1.73;;;19.60;99.90;;;;;;5075320;28;20127;-81
2022/06/12 05:34:17;;;;;;;3.88;1.50;;;19.70;99.90;;;;;;5078009;28;20079;-80
2022/06/12 05:36:45;;;;;;;2.13;1.40;;;19.70;99.90;;;;;;5075629;28;20048;-80
2022/06/12 05:39:12;;;;;;;2.13;1.30;;;19.80;99.90;;;;;;5071015;28;20091;-80
2022/06/12 05:41:39;;;;;;;3.70;1.90;;;19.80;99.90;;;;;;5060187;28;20537;-81
2022/06/12 05:44:07;;;;;;;5.22;1.60;;;19.90;99.90;;;;;;5079466;28;20072;-81
2022/06/12 05:46:34;;;;;;;2.28;1.40;;;19.90;99.90;;;;;;5077247;28;20045;-81
2022/06/12 05:49:01;;;;;;;2.85;1.70;;;19.90;99.90;;;;;;5076845;28;20105;-80
2022/06/12 05:51:27;;;;;;;2.92;1.65;;;20.00;99.90;;;;;;5078637;28;20449;-82
2022/06/12 05:53:54;;;;;;;3.10;1.67;;;20.00;99.90;;;;;;5079275;28;20129;-80
2022/06/12 05:56:23;;;;;;;2.67;1.80;;;20.00;99.90;;;;;;5076421;28;20057;-80
2022/06/12 05:58:49;;;;;;;4.32;2.03;;;20.00;99.90;;;;;;5061659;28;20083;-81
2022/06/12 06:01:19;;;;;;;2.25;1.80;;;20.00;99.90;;;;;;5078806;28;20084;-82
2022/06/12 06:03:47;;;;;;;2.60;1.98;;;20.00;99.90;;;;;;5079719;28;20072;-79
2022/06/12 06:06:18;;;;;;;3.30;2.10;;;20.00;99.90;;;;;;5083231;28;20131;-80
2022/06/12 06:08:45;;;;;;;3.97;2.45;;;20.00;99.90;;;;;;5082631;28;20140;-81
2022/06/12 06:11:11;;;;;;;4.05;2.15;;;20.00;99.90;;;;;;5066584;28;20112;-80
2022/06/12 06:13:38;;;;;;;3.40;2.08;;;20.00;99.90;;;;;;5082073;28;20048;-81
2022/06/12 06:16:07;;;;;;;4.78;2.13;;;20.00;99.90;;;;;;5078803;28;20108;-82
2022/06/12 06:18:35;;;;;;;2.83;2.13;;;20.00;99.90;;;;;;5057388;28;20056;-82
2022/06/12 06:21:03;;;;;;;3.78;2.10;;;20.00;99.90;;;;;;5078003;28;20072;-80
2022/06/12 06:23:29;;;;;;;3.33;1.75;;;20.10;99.90;;;;;;5075076;28;20517;-82
2022/06/12 06:25:56;;;;;;;4.47;2.50;;;20.10;99.90;;;;;;5076575;28;20055;-81
2022/06/12 06:28:23;;;;;;;5.35;2.40;;;20.10;99.90;;;;;;5078744;28;20395;-78
2022/06/12 06:30:49;;;;;;;4.63;2.25;;;20.10;99.90;;;;;;5076466;28;20082;-82
2022/06/12 06:33:16;;;;;;;2.85;2.30;;;20.10;99.90;;;;;;5076250;28;20044;-81
2022/06/12 06:35:43;;;;;;;2.67;2.33;;;20.20;99.90;;;;;;5075634;28;20056;-81
2022/06/12 06:38:10;;;;;;;3.88;2.42;;;20.20;99.90;;;;;;5077728;28;20080;-82
2022/06/12 06:40:37;;;;;;;7.07;2.33;;;20.20;99.90;;;;;;5056085;28;20051;-81
2022/06/12 06:43:06;;;;;;;4.22;1.90;;;20.20;99.90;;;;;;5070109;28;20071;-81
2022/06/12 06:48:20;;;;;;;7.68;2.38;;;20.30;99.90;;;;;;5073944;28;20464;-80
2022/06/12 06:50:47;;;;;;;3.92;2.28;;;20.40;99.90;;;;;;5070498;28;20122;-82
2022/06/12 06:53:14;;;;;;;5.38;2.88;;;20.40;99.90;;;;;;5058654;28;20475;-81
2022/06/12 06:55:42;;;;;;;8.35;2.75;;;20.40;99.90;;;;;;5056846;28;20049;-81
2022/06/12 06:58:12;;;;;;;5.97;3.05;;;20.40;99.90;;;;;;5077098;28;20052;-81
2022/06/12 07:00:41;;;;;;;6.30;2.83;;;20.50;99.90;;;;;;5074841;28;20040;-79
2022/06/12 07:03:08;;;;;;;6.63;2.58;;;20.50;99.90;;;;;;5076319;28;20040;-80
2022/06/12 07:05:36;;;;;;;6.60;2.72;;;20.50;99.90;;;;;;5072975;28;20045;-79
2022/06/12 07:08:03;;;;;;;6.63;2.90;;;20.60;99.90;;;;;;5077838;28;20088;-80
2022/06/12 07:10:32;;;;;;;6.85;2.75;;;20.60;99.90;;;;;;5072944;28;20041;-82
2022/06/12 07:13:00;;;;;;;6.45;2.80;;;20.60;99.90;;;;;;5075286;28;20131;-80
2022/06/12 07:15:29;;;;;;;6.35;2.80;;;20.70;99.90;;;;;;5074482;28;20044;-80
2022/06/12 07:17:58;;;;;;;4.78;2.60;;;20.70;99.90;;;;;;5069976;28;20082;-80
2022/06/12 07:20:28;;;;;;;4.75;2.33;;;20.80;99.90;;;;;;5073118;28;20044;-79
2022/06/12 07:22:55;;;;;;;4.50;2.40;;;20.80;99.90;;;;;;5052980;28;20052;-78
2022/06/12 07:25:22;;;;;;;3.05;2.40;;;20.80;99.90;;;;;;5066683;28;20048;-79
2022/06/12 07:27:49;;;;;;;5.10;3.15;;;20.90;99.90;;;;;;5070961;28;20487;-79
2022/06/12 07:30:19;;;;;;;4.75;2.70;;;21.00;99.90;;;;;;5055379;28;20048;-79
2022/06/12 07:32:46;;;;;;;;;;;21.00;99.90;;;;;;5071763;28;20049;-79
2022/06/12 07:35:13;;;;;;;7.22;2.95;;;21.10;99.90;;;;;;5072896;28;20275;-80
2022/06/12 07:37:41;;;;;;;4.15;2.47;;;21.10;99.90;;;;;;5055457;28;20063;-78
2022/06/12 07:40:13;;;;;;;6.30;2.30;;;21.20;99.90;;;;;;5070680;28;20048;-80
2022/06/12 07:42:40;;;;;;;4.07;2.58;;;21.20;99.90;;;;;;5066900;28;20045;-79
2022/06/12 07:45:07;;;;;;;3.78;2.65;;;21.30;99.90;;;;;;5073567;28;20045;-79
2022/06/12 07:47:34;;;;;;;8.00;2.50;;;21.30;99.90;;;;;;5071979;28;20045;-78
2022/06/12 07:50:01;;;;;;;4.25;2.60;;;21.40;99.90;;;;;;5071433;28;20058;-79
2022/06/12 07:52:27;;;;;;;9.02;3.00;;;21.40;99.90;;;;;;5070147;28;20549;-78
2022/06/12 07:54:55;;;;;;;7.93;3.15;;;21.40;99.90;;;;;;5071956;28;20048;-80
2022/06/12 07:57:23;;;;;;;3.05;2.47;;;21.50;99.90;;;;;;5069573;28;20128;-77
2022/06/12 07:59:50;;;;;;;5.78;2.80;;;21.50;99.90;;;;;;5072523;28;20058;-78
2022/06/12 08:02:18;;;;;;;7.10;2.45;;;21.60;99.90;;;;;;5069493;28;20049;-80
2022/06/12 08:04:45;;;;;;;4.45;2.40;;;21.60;99.90;;;;;;5065238;28;20049;-80
2022/06/12 08:07:12;;;;;;;6.05;2.83;;;21.70;99.90;;;;;;5073141;28;20123;-79
2022/06/12 08:09:39;;;;;;;5.45;2.60;;;21.70;99.90;;;;;;5070070;28;20055;-80
2022/06/12 08:12:07;;;;;;;5.50;2.83;;;21.80;99.90;;;;;;5071742;28;20048;-78
2022/06/12 08:14:34;;;;;;;4.57;2.55;;;21.90;99.90;;;;;;5071259;28;20116;-78
2022/06/12 08:17:00;;;;;;;5.53;2.53;;;21.90;99.90;;;;;;5070423;28;20049;-78
2022/06/12 08:22:13;;;;;;;6.55;2.33;;;22.00;99.90;;;;;;5068045;28;20124;-77
2022/06/12 08:24:39;;;;;;;3.83;2.78;;;22.10;99.90;;;;;;5071597;28;20068;-80
2022/06/12 08:27:07;;;;;;;3.65;2.60;;;22.20;99.90;;;;;;5072467;28;20051;-79
2022/06/12 08:29:34;;;;;;;4.05;2.88;;;22.20;99.90;;;;;;5069184;28;20045;-79
2022/06/12 08:32:06;;;;;;;5.75;2.60;;;22.20;99.90;;;;;;5071824;28;20048;-78
2022/06/12 08:34:53;;;;;;;4.57;2.45;;;22.30;99.90;;;;;;5065111;28;20049;-78
2022/06/12 08:37:32;;;;;;;4.43;2.05;;;22.40;99.90;;;;;;5069447;28;20088;-80
2022/06/12 08:40:00;;;;;;;5.82;2.40;;;22.40;99.90;;;;;;5067408;28;20136;-78
2022/06/12 08:42:54;;;;;;;4.43;2.50;;;22.40;99.90;;;;;;5053217;28;20492;-79
2022/06/12 08:45:26;;;;;;;6.38;2.28;;;22.40;99.90;;;;;;5069954;28;20136;-80
2022/06/12 08:48:00;;;;;;;4.07;1.88;;;22.50;99.90;;;;;;5072892;28;20421;-80
2022/06/12 08:50:32;;;;;;;3.65;2.08;;;22.60;99.90;;;;;;5066490;28;20049;-79
2022/06/12 08:53:05;;;;;;;4.40;1.83;;;22.60;99.90;;;;;;5071522;28;20049;-79
2022/06/12 08:55:42;;;;;;;3.72;2.03;;;22.60;99.90;;;;;;5072593;28;20055;-77
2022/06/12 08:58:42;;;;;;;2.90;1.98;;;22.60;99.90;;;;;;5066757;28;20136;-78
2022/06/12 09:01:08;;;;;;;4.63;2.25;;;22.70;99.90;;;;;;5069033;28;20045;-78
2022/06/12 09:03:39;;;;;;;3.08;2.00;;;22.70;99.90;;;;;;5053989;28;20045;-79
2022/06/12 09:06:37;;;;;;;5.18;2.30;;;22.80;99.90;;;;;;5069345;28;20071;-81
2022/06/12 09:09:30;;;;;;;7.05;1.88;;;22.80;99.90;;;;;;5072647;28;20054;-82
2022/06/12 09:12:41;;;;;;;2.25;1.67;;;22.90;99.90;;;;;;5072664;28;20044;-79
2022/06/12 09:15:39;;;;;;;5.68;2.05;;;22.90;99.90;;;;;;5068882;28;20328;-80
2022/06/12 09:18:24;;;;;;;5.55;2.28;;;23.00;99.90;;;;;;5069655;28;20095;-79
2022/06/12 09:21:25;;;;;;;3.45;1.80;;;23.10;99.90;;;;;;5067987;28;20076;-81
2022/06/12 09:24:29;;;;;;;5.28;2.17;;;23.10;99.90;;;;;;5071339;28;20144;-79
2022/06/12 09:27:21;;;;;;;7.63;2.33;;;23.30;99.90;;;;;;5066098;28;20147;-79
2022/06/12 09:30:03;;;;;;;5.50;2.17;;;23.50;99.90;;;;;;5068914;28;20045;-81
2022/06/12 09:32:49;;;;;;;2.80;1.95;;;23.50;99.90;;;;;;5077957;28;20052;-80
2022/06/12 09:35:34;;;;;;;3.97;1.77;;;23.50;99.90;;;;;;5073257;28;20049;-81
2022/06/12 09:38:26;;;;;;;6.40;1.65;;;23.50;99.90;;;;;;5069550;28;20140;-81
2022/06/12 09:41:12;;;;;;;5.75;1.77;;;23.60;99.90;;;;;;5067426;28;20135;-81
2022/06/12 09:43:53;;;;;;;3.83;2.05;;;23.80;99.90;;;;;;5072662;28;20111;-81
2022/06/12 09:47:03;;;;;;;2.95;1.73;;;23.90;99.90;;;;;;5072618;28;20087;-81
2022/06/12 09:50:04;;;;;;;5.22;1.25;;;24.00;99.90;;;;;;5071882;28;20044;-81
2022/06/12 09:52:52;;;;;;;2.50;1.52;;;24.10;99.90;;;;;;5072130;28;20056;-78
2022/06/12 09:55:35;;;;;;;3.72;1.50;;;24.10;99.90;;;;;;5068817;28;20185;-81
2022/06/12 09:58:19;;;;;;;2.53;1.33;;;24.10;99.90;;;;;;5072845;28;20085;-79
2022/06/12 10:01:04;;;;;;;2.55;1.50;;;24.10;99.90;;;;;;5072206;28;20132;-81
2022/06/12 10:03:39;;;;;;;5.85;1.98;;;24.10;99.90;;;;;;5071843;28;20041;-82
2022/06/12 10:06:24;;;;;;;5.20;1.75;;;24.10;99.90;;;;;;5056965;28;20048;-81
2022/06/12 10:08:51;;;;;;;2.80;1.58;;;24.10;99.90;;;;;;5072057;28;20040;-80
2022/06/12 10:11:20;;;;;;;2.47;1.63;;;24.30;99.90;;;;;;5073297;28;20072;-80
2022/06/12 10:13:59;;;;;;;2.67;1.77;;;24.40;99.90;;;;;;5075619;28;20055;-81
2022/06/12 10:16:35;;;;;;;5.40;2.08;;;24.40;99.90;;;;;;5063786;28;20052;-81
2022/06/12 10:19:34;;;;;;;3.88;1.65;;;24.40;99.90;;;;;;5061672;28;20053;-79
2022/06/12 10:22:07;;;;;;;4.03;2.10;;;24.40;99.90;;;;;;5063876;28;20049;-78
2022/06/12 10:24:33;;;;;;;2.10;1.40;;;24.50;99.90;;;;;;5059691;28;20045;-79
2022/06/12 10:27:03;;;;;;;3.05;1.30;;;24.50;99.90;;;;;;5066145;28;20417;-79
2022/06/12 10:29:46;;;;;;;4.25;1.95;;;24.60;99.90;;;;;;5063530;28;20045;-78
2022/06/12 10:32:28;;;;;;;3.95;1.48;;;24.70;99.90;;;;;;5058909;28;20570;-78
2022/06/12 10:35:14;;;;;;;2.17;1.52;;;24.80;99.90;;;;;;5064377;28;20391;-77
2022/06/12 10:37:41;;;;;;;3.90;1.67;;;24.80;99.90;;;;;;5066056;28;20059;-80
2022/06/12 10:40:16;;;;;;;7.30;2.03;;;24.90;99.90;;;;;;5062732;28;20049;-78
2022/06/12 10:42:45;;;;;;;2.22;1.40;;;25.00;99.90;;;;;;5062741;28;20048;-80
2022/06/12 10:45:29;;;;;;;3.92;1.42;;;25.10;99.90;;;;;;5059045;28;20128;-79
2022/06/12 10:48:00;;;;;;;2.30;1.80;;;25.20;99.90;;;;;;5063684;28;20102;-78
2022/06/12 10:50:37;;;;;;;2.75;1.63;;;25.30;99.90;;;;;;5066227;28;20071;-77
2022/06/12 10:53:25;;;;;;;3.78;1.50;;;25.30;99.90;;;;;;5061717;28;20425;-79
2022/06/12 10:55:54;;;;;;;3.63;1.90;;;25.40;99.90;;;;;;5060477;28;20052;-79
2022/06/12 10:58:35;;;;;;;2.75;1.77;;;25.50;99.90;;;;;;5065442;28;20055;-77
2022/06/12 11:01:11;;;;;;;6.40;1.95;;;25.50;99.90;;;;;;5066420;28;20044;-79
2022/06/12 11:04:14;;;;;;;4.25;1.67;;;25.40;99.90;;;;;;5064007;28;20128;-79
2022/06/12 11:06:47;;;;;;;2.30;1.50;;;25.40;99.90;;;;;;5065003;28;20052;-79
2022/06/12 11:09:14;;;;;;;4.60;1.83;;;25.40;99.90;;;;;;5059153;28;20051;-79
2022/06/12 11:11:49;;;;;;;4.47;2.08;;;25.50;99.90;;;;;;5065864;28;20178;-79
2022/06/12 11:14:43;;;;;;;2.53;1.85;;;25.50;99.90;;;;;;5065163;28;20048;-79
2022/06/12 11:17:19;;;;;;;2.03;1.60;;;25.50;99.90;;;;;;5068824;28;20053;-81
2022/06/12 11:20:13;;;;;;;4.05;1.88;;;25.50;99.90;;;;;;5073251;28;20116;-79
2022/06/12 11:23:04;;;;;;;1.90;1.70;;;25.50;99.90;;;;;;5069473;28;20045;-80
2022/06/12 11:26:07;;;;;;;4.30;1.80;;;25.50;99.90;;;;;;5075184;28;20075;-81
2022/06/12 11:29:02;;;;;;;6.68;2.00;;;25.70;99.90;;;;;;5071903;28;20079;-81
2022/06/12 11:32:04;;;;;;;2.00;1.40;;;25.70;99.90;;;;;;5072284;28;20076;-80
2022/06/12 11:35:02;;;;;;;3.83;1.95;;;25.70;99.90;;;;;;5038925;28;20055;-80
2022/06/12 11:37:48;;;;;;;5.00;1.65;;;25.70;99.90;;;;;;5072819;28;20495;-81
2022/06/12 11:40:56;;;;;;;3.38;1.50;;;25.80;99.90;;;;;;5073718;28;20053;-81
2022/06/12 11:43:32;;;;;;;7.18;1.85;;;25.80;99.90;;;;;;5031702;28;20052;-80
2022/06/12 11:46:10;;;;;;;4.47;1.70;;;25.80;99.90;;;;;;5076123;28;20059;-80
2022/06/12 11:49:02;;;;;;;2.63;1.20;;;25.80;99.90;;;;;;5069355;28;20045;-82
2022/06/12 11:51:54;;;;;;;1.38;1.10;;;25.80;99.90;;;;;;5051858;28;20052;-81
2022/06/12 11:54:45;;;;;;;3.28;1.27;;;26.00;99.90;;;;;;5073384;28;20048;-82
2022/06/12 11:57:49;;;;;;;2.00;1.20;;;26.10;99.90;;;;;;5068946;28;20061;-81
2022/06/12 12:00:29;;;;;;;8.18;1.73;;;26.20;99.90;;;;;;5065972;28;20049;-79
2022/06/12 12:03:21;;;;;;;3.08;1.50;;;26.30;99.90;;;;;;5073402;28;20090;-80
2022/06/12 12:06:00;;;;;;;1.88;1.35;;;26.30;99.90;;;;;;5075887;28;20045;-81
2022/06/12 12:08:35;;;;;;;3.40;1.40;;;26.30;99.90;;;;;;5071415;28;20104;-81
2022/06/12 12:11:05;;;;;;;3.78;1.40;;;26.30;99.90;;;;;;5074600;28;20565;-80
2022/06/12 12:13:42;;;;;;;2.72;1.25;;;26.30;99.90;;;;;;5077546;28;20087;-81
2022/06/12 12:16:38;;;;;;;2.85;1.35;;;26.70;99.90;;;;;;5072140;28;20060;-80
2022/06/12 12:19:29;;;;;;;3.70;1.35;;;26.80;99.90;;;;;;5073088;28;20080;-81
2022/06/12 12:22:03;;;;;;;2.58;1.00;;;26.90;99.90;;;;;;5073653;28;20091;-80
2022/06/12 12:24:37;;;;;;;1.95;1.05;;;27.00;99.90;;;;;;5078234;28;20104;-82
2022/06/12 12:27:11;;;;;;;2.75;0.85;;;26.90;99.90;;;;;;5070948;28;20103;-81
2022/06/12 12:29:39;;;;;;;1.60;1.00;;;26.90;99.90;;;;;;5076372;28;20485;-81
2022/06/12 12:32:08;;;;;;;1.92;0.90;;;26.80;99.90;;;;;;5076607;28;20049;-80
2022/06/12 12:34:36;;;;;;;2.85;1.23;;;26.80;99.90;;;;;;5074218;28;20049;-81
2022/06/12 12:43:14;;;;;;;1.33;0.80;;;26.70;99.90;;;;;;5073252;28;20113;-80
2022/06/12 12:45:41;;;;;;;1.52;0.93;;;26.80;99.90;;;;;;5072256;28;20079;-79
2022/06/12 12:48:14;;;;;;;1.52;0.77;;;26.80;99.90;;;;;;5057558;28;20055;-80
2022/06/12 12:50:44;;;;;;;3.83;1.00;;;26.80;99.90;;;;;;5073104;28;20045;-79
2022/06/12 12:53:27;;;;;;;1.30;0.90;;;26.90;99.90;;;;;;5073634;28;20048;-81
2022/06/12 12:56:13;;;;;;;1.77;1.02;;;26.90;99.90;;;;;;5051290;28;20077;-80
2022/06/12 12:58:54;;;;;;;4.05;0.80;;;26.90;99.90;;;;;;5072469;28;20049;-80
2022/06/12 13:01:24;;;;;;;2.05;0.95;;;26.90;99.90;;;;;;5070412;28;20060;-82
2022/06/12 13:03:56;;;;;;;3.38;0.95;;;27.00;99.90;;;;;;5078413;28;20053;-81
2022/06/12 13:06:46;;;;;;;2.58;0.73;;;27.10;99.90;;;;;;5076991;28;20041;-82
2022/06/12 13:09:41;;;;;;;1.58;0.93;;;27.10;99.90;;;;;;5079874;28;20052;-81
2022/06/12 13:12:14;;;;;;;2.47;1.23;;;27.20;99.90;;;;;;5080715;28;20068;-80
2022/06/12 13:15:10;;;;;;;2.63;0.80;;;27.30;99.90;;;;;;5058562;28;20045;-81
2022/06/12 13:18:01;;;;;;;1.25;0.82;;;27.40;99.90;;;;;;5072310;28;20525;-79
2022/06/12 13:20:46;;;;;;;1.02;0.90;;;27.30;99.90;;;;;;5075403;28;20045;-81
2022/06/12 13:23:25;;;;;;;2.05;1.10;;;27.40;99.90;;;;;;5057736;28;20052;-81
2022/06/12 13:25:53;;;;;;;1.25;0.88;;;27.30;99.90;;;;;;5077773;28;20066;-81
2022/06/12 13:28:29;;;;;;;0.98;0.65;;;27.30;99.90;;;;;;5079090;28;20049;-78
2022/06/12 13:30:57;;;;;;;3.47;0.80;;;27.30;99.90;;;;;;5071227;28;20053;-82
2022/06/12 13:33:26;;;;;;;3.10;1.02;;;27.30;99.90;;;;;;5076072;28;20489;-81
2022/06/12 13:36:06;;;;;;;2.20;1.00;;;27.40;99.90;;;;;;5078972;28;20166;-82
2022/06/12 13:38:45;;;;;;;4.22;0.80;;;27.50;99.90;;;;;;5078973;28;20112;-80
2022/06/12 13:41:27;;;;;;;1.60;0.93;;;27.50;99.90;;;;;;5075247;28;20049;-80
2022/06/12 13:43:55;;;;;;;1.27;0.80;;;27.40;99.90;;;;;;5071957;28;20127;-80
2022/06/12 13:46:35;;;;;;;2.78;0.90;;;27.40;99.90;;;;;;5080162;28;20041;-82
2022/06/12 13:49:28;;;;;;;4.60;0.93;;;27.50;99.90;;;;;;5077139;28;20041;-81
2022/06/12 13:52:03;;;;;;;3.00;0.95;;;27.60;99.90;;;;;;5077552;28;20071;-80
2022/06/12 13:54:40;;;;;;;1.38;0.80;;;27.60;99.90;;;;;;5072808;28;20135;-80